Stockton, KS

5:24 PM CDT on July 06, 2015 (GMT -0500)
Heritage Insurance Group, Inc | | Change Station
CLOSE
Current Station
Personal Weather Station
Location: Stockton, KS
Elevation: 1804 ft
Nearby Weather Stations

Elev 1804 ft 39.44 °N, 99.27 °W | Updated 30 seconds ago

Overcast
Overcast
78.4 °F
Feels Like 80 °F
N
8.7
Wind Variable Wind from North
Gusts 12.3 mph

Today
High -- | Low -- °F
--% Chance of Precip.
Yesterday
High -- | Low -- °F
Precip. -- in
6:16 AM 9:07 PM
Waning Gibbous, 71% visible
Pressure 29.95 in
Visibility 5.0 miles
Clouds Mostly Cloudy 3600 ft
Mostly Cloudy 6500 ft
Overcast 8000 ft
Heat Index 80 °F
Dew Point 62 °F
Humidity 56%
Rainfall 0.07 in
Snow Depth Not available.
UV 3.0 out of 12
Pollen 2.40 out of 12
Air Quality Not available.
Flu Activity Not available.
METAR KHLC 062153Z AUTO 02015G24KT 5SM HZ BKN036 BKN065 OVC080 26/16 A3002 RMK AO2 PK WND 36026/2136 SLP142 T02560156

More Conditions Fewer Conditions

Pressure 29.95 in
Visibility 5.0 miles
Clouds Mostly Cloudy 3600 ft
Mostly Cloudy 6500 ft
Overcast 8000 ft
Heat Index 80 °F
Dew Point 62 °F
Humidity 56%
Rainfall 0.07 in
Snow Depth Not available.
UV 3.0 out of 12
Pollen 2.40 out of 12
Air Quality Not available.
Flu Activity Not available.
METAR KHLC 062153Z AUTO 02015G24KT 5SM HZ BKN036 BKN065 OVC080 26/16 A3002 RMK AO2 PK WND 36026/2136 SLP142 T02560156

More Conditions Fewer Conditions

Nowcast | as of 4:14 PM CDT on July 6, 2015

An area of smoke behind a cold front is moving south across the area. This smoke originated from fires in Canada. Expect visibility of generally 3 to 6 miles for a few miles as the smoke moves south...with some locations briefly dropping below 3 miles visibility. The smoke will clear from north to south and should clear out before 10 PM for most locations.

×

10-Day Weather Forecast

×

Almanac

Astronomy

Jul. 06, 2015 Rise Set
Actual Time
Civil Twilight
Nautical Twilight
Astronomical Twilight
Moon
Length of Visible Light
Length of Day
Tomorrow will be .
, % of the Moon is Illuminated

Today's Extremes

State Highs State Lows

Community

WunderPhotos

Upload Photos

1,835,664 photos uploaded!

WunderBlogs® & News

Nearby

Air Quality

  Air Quality AQ Index Pollutant
Not available.

Snow Depth

Station Depth Elevation

Earthquake Activity

City Distance Mag. Time & Date
Minimum magnitude displayed is 2.5.

Coastal Water Temperatures

Place Temperature

Stations

Nearby Weather Stations

Station Location Temp. Windchill Dew Point Humidity Wind Precip. Elev Updated Type